Time;durP1;ratioP1;P1;durP2;ratioP2;P2;SDS_P1;SDS_P2;PMS_P1;PMS_P2;Temp;Humidity;BMP_temperature;BMP_pressure;BME280_temperature;BME280_humidity;BME280_pressure;Samples;Min_cycle;Max_cycle;Signal;HPM_P1;HPM_P2
2023/03/21 00:00:12;;;;;;;;;;;;;;;;;;5070839;28;19925;-82
2023/03/21 00:02:38;;;;;;;;;;;;;;;;;;5073096;28;19924;-82
2023/03/21 00:05:04;;;;;;;;;;;;;;;;;;5071961;28;20598;-82
2023/03/21 00:07:30;;;;;;;;;;;;;;;;;;5072543;28;20026;-82
2023/03/21 00:09:56;;;;;;;;;;;;;;;;;;5066882;28;19924;-82
2023/03/21 00:12:22;;;;;;;;;;;;;;;;;;5072032;28;19925;-82
2023/03/21 00:14:47;;;;;;;;;;;;;;;;;;5071203;28;19925;-82
2023/03/21 00:17:14;;;;;;;;;;;;;;;;;;5071909;28;19936;-82
2023/03/21 00:19:40;;;;;;;;;;;;;;;;;;5071291;28;19925;-82
2023/03/21 00:22:06;;;;;;;;;;;;;;;;;;5070166;28;19999;-82
2023/03/21 00:24:32;;;;;;;;;;;;;;;;;;5070281;28;20336;-82
2023/03/21 00:26:59;;;;;;;;;;;;;;;;;;5071638;28;19939;-82
2023/03/21 00:29:25;;;;;;;;;;;;;;;;;;5072418;28;20390;-82
2023/03/21 00:31:50;;;;;;;;;;;;;;;;;;5071626;28;19925;-82
2023/03/21 00:34:16;;;;;;;;;;;;;;;;;;5054343;28;19924;-82
2023/03/21 00:36:42;;;;;;;;;;;;;;;;;;5071839;28;19964;-82
2023/03/21 00:39:08;;;;;;;;;;;;;;;;;;5056858;28;20021;-82
2023/03/21 00:41:34;;;;;;;;;;;;;;;;;;5070352;28;19925;-82
2023/03/21 00:44:01;;;;;;;;;;;;;;;;;;5071508;28;19931;-82
2023/03/21 00:46:26;;;;;;;;;;;;;;;;;;5071938;28;19925;-82
2023/03/21 00:48:52;;;;;;;;;;;;;;;;;;5070980;28;19947;-81
2023/03/21 00:51:24;;;;;;;;;;;;;;;;;;5064397;28;19978;-81
2023/03/21 00:53:50;;;;;;;;;;;;;;;;;;5068501;28;19924;-82
2023/03/21 00:56:16;;;;;;;;;;;;;;;;;;5071133;28;19925;-82
2023/03/21 00:58:42;;;;;;;;;;;;;;;;;;5064612;28;20011;-81
2023/03/21 01:01:08;;;;;;;;;;;;;;;;;;5070993;28;19979;-82
2023/03/21 01:03:41;;;;;;;;;;;;;;;;;;5068523;28;19971;-82
2023/03/21 01:06:07;;;;;;;;;;;;;;;;;;5070321;28;19979;-82
2023/03/21 01:08:33;;;;;;;;;;;;;;;;;;5069917;28;19972;-82
2023/03/21 01:10:59;;;;;;;;;;;;;;;;;;5069496;28;19997;-82
2023/03/21 01:13:25;;;;;;;;;;;;;;;;;;5070860;28;19935;-81
2023/03/21 01:15:51;;;;;;;;;;;;;;;;;;5070308;28;19935;-82
2023/03/21 01:18:17;;;;;;;;;;;;;;;;;;5070850;28;19981;-82
2023/03/21 01:20:43;;;;;;;;;;;;;;;;;;5067436;28;19932;-82
2023/03/21 01:23:09;;;;;;;;;;;;;;;;;;5063335;28;19928;-82
2023/03/21 01:25:35;;;;;;;;;;;;;;;;;;5066894;28;20439;-82
2023/03/21 01:28:01;;;;;;;;;;;;;;;;;;5069742;28;20015;-85
2023/03/21 01:30:27;;;;;;;;;;;;;;;;;;5070250;28;19928;-82
2023/03/21 01:32:53;;;;;;;;;;;;;;;;;;5069781;28;19939;-81
2023/03/21 01:35:19;;;;;;;;;;;;;;;;;;5070760;28;19929;-82
2023/03/21 01:37:47;;;;;;;;;;;;;;;;;;5052906;28;19928;-82
2023/03/21 01:40:13;;;;;;;;;;;;;;;;;;5068011;28;20476;-81
2023/03/21 01:42:39;;;;;;;;;;;;;;;;;;5070213;28;19950;-82
2023/03/21 01:45:05;;;;;;;;;;;;;;;;;;5069705;28;19925;-82
2023/03/21 01:47:31;;;;;;;;;;;;;;;;;;5062257;28;19964;-82
2023/03/21 01:49:57;;;;;;;;;;;;;;;;;;5069829;28;19967;-82
2023/03/21 02:05:02;;;;;;;;;;;;;;;;;;5311255;22;20369;-72
2023/03/21 02:07:28;;;;;;;;;;;;;;;;;;5039002;28;19931;-82
2023/03/21 02:09:54;;;;;;;;;;;;;;;;;;5032513;28;20023;-81
2023/03/21 02:12:20;;;;;;;;;;;;;;;;;;5051649;28;19931;-82
2023/03/21 02:14:46;;;;;;;;;;;;;;;;;;5051753;28;19929;-81
2023/03/21 02:17:12;;;;;;;;;;;;;;;;;;5051162;28;19925;-81
2023/03/21 02:19:38;;;;;;;;;;;;;;;;;;5033683;28;19935;-82
2023/03/21 02:22:04;;;;;;;;;;;;;;;;;;5050385;28;20382;-81
2023/03/21 02:24:31;;;;;;;;;;;;;;;;;;5050003;28;20394;-81
2023/03/21 02:26:57;;;;;;;;;;;;;;;;;;5051821;28;20334;-81
2023/03/21 02:29:23;;;;;;;;;;;;;;;;;;5051292;28;19975;-82
2023/03/21 02:31:49;;;;;;;;;;;;;;;;;;5051905;28;20024;-81
2023/03/21 02:34:15;;;;;;;;;;;;;;;;;;5050216;28;19972;-82
2023/03/21 02:36:41;;;;;;;;;;;;;;;;;;5052013;28;19932;-81
2023/03/21 02:39:07;;;;;;;;;;;;;;;;;;5050724;28;19932;-81
2023/03/21 02:41:33;;;;;;;;;;;;;;;;;;5050784;28;19925;-81
2023/03/21 02:43:59;;;;;;;;;;;;;;;;;;5049866;28;19999;-81
2023/03/21 02:46:25;;;;;;;;;;;;;;;;;;5050553;28;19931;-81
2023/03/21 02:48:51;;;;;;;;;;;;;;;;;;5050878;28;19924;-81
2023/03/21 02:51:17;;;;;;;;;;;;;;;;;;5050916;28;20055;-82
2023/03/21 02:53:43;;;;;;;;;;;;;;;;;;5050588;28;19935;-81
2023/03/21 02:56:09;;;;;;;;;;;;;;;;;;5051085;28;20448;-81
2023/03/21 02:58:35;;;;;;;;;;;;;;;;;;5050790;28;20370;-81
2023/03/21 03:01:01;;;;;;;;;;;;;;;;;;5051029;28;19933;-81
2023/03/21 03:03:27;;;;;;;;;;;;;;;;;;5050667;28;19925;-80
2023/03/21 03:05:53;;;;;;;;;;;;;;;;;;5050444;28;20378;-80
2023/03/21 03:08:19;;;;;;;;;;;;;;;;;;5050722;28;19925;-81
2023/03/21 03:10:46;;;;;;;;;;;;;;;;;;5050110;28;19936;-80
2023/03/21 03:13:12;;;;;;;;;;;;;;;;;;5051049;28;19924;-80
2023/03/21 03:15:37;;;;;;;;;;;;;;;;;;5050229;28;19924;-80
2023/03/21 03:18:03;;;;;;;;;;;;;;;;;;5049907;28;19969;-80
2023/03/21 03:20:30;;;;;;;;;;;;;;;;;;5049491;28;19940;-80
2023/03/21 03:22:56;;;;;;;;;;;;;;;;;;5054441;28;20305;-80
2023/03/21 03:25:22;;;;;;;;;;;;;;;;;;5053175;28;19947;-81
2023/03/21 03:27:48;;;;;;;;;;;;;;;;;;5054458;28;19929;-80
2023/03/21 03:30:14;;;;;;;;;;;;;;;;;;5054502;28;19932;-80
2023/03/21 03:32:43;;;;;;;;;;;;;;;;;;5054064;28;19928;-80
2023/03/21 03:35:10;;;;;;;;;;;;;;;;;;5053673;28;20405;-80
2023/03/21 03:37:36;;;;;;;;;;;;;;;;;;5053557;28;20287;-79
2023/03/21 03:40:04;;;;;;;;;;;;;;;;;;5053489;28;19960;-80
2023/03/21 03:42:30;;;;;;;;;;;;;;;;;;5053870;28;19925;-80
2023/03/21 03:44:56;;;;;;;;;;;;;;;;;;5054096;28;19974;-80
2023/03/21 03:47:22;;;;;;;;;;;;;;;;;;5053802;28;20377;-81
2023/03/21 03:49:48;;;;;;;;;;;;;;;;;;5053858;28;20503;-80
2023/03/21 03:52:14;;;;;;;;;;;;;;;;;;5053893;28;19925;-80
2023/03/21 03:54:40;;;;;;;;;;;;;;;;;;5052874;28;20388;-80
2023/03/21 03:57:06;;;;;;;;;;;;;;;;;;5053274;28;20031;-80
2023/03/21 03:59:32;;;;;;;;;;;;;;;;;;5053616;28;19932;-80
2023/03/21 04:01:58;;;;;;;;;;;;;;;;;;5053443;28;19924;-80
2023/03/21 04:04:28;;;;;;;;;;;;;;;;;;5053246;28;19933;-81
2023/03/21 04:06:54;;;;;;;;;;;;;;;;;;5053916;28;20047;-80
2023/03/21 04:09:20;;;;;;;;;;;;;;;;;;5035326;28;19982;-80
2023/03/21 04:11:46;;;;;;;;;;;;;;;;;;5053350;28;20382;-80
2023/03/21 04:14:12;;;;;;;;;;;;;;;;;;5053658;28;19925;-80
2023/03/21 04:16:37;;;;;;;;;;;;;;;;;;5053226;28;20085;-80
2023/03/21 04:19:03;;;;;;;;;;;;;;;;;;5035480;28;19948;-80
2023/03/21 04:21:30;;;;;;;;;;;;;;;;;;5053015;28;19925;-80
2023/03/21 04:23:56;;;;;;;;;;;;;;;;;;5052013;28;20035;-80
2023/03/21 04:26:22;;;;;;;;;;;;;;;;;;5053338;28;20051;-80
2023/03/21 04:28:48;;;;;;;;;;;;;;;;;;5053223;28;19979;-80
2023/03/21 04:31:16;;;;;;;;;;;;;;;;;;5053417;28;19925;-80
2023/03/21 04:36:46;;;;;;;;;;;;;;;;;;5331320;22;19932;-70
2023/03/21 04:39:12;;;;;;;;;;;;;;;;;;5063904;28;19932;-80
2023/03/21 04:41:38;;;;;;;;;;;;;;;;;;5072254;28;19925;-80
2023/03/21 04:44:04;;;;;;;;;;;;;;;;;;5073074;28;20414;-80
2023/03/21 04:46:30;;;;;;;;;;;;;;;;;;5072836;28;19931;-80
2023/03/21 04:48:56;;;;;;;;;;;;;;;;;;5073086;28;19924;-79
2023/03/21 04:51:22;;;;;;;;;;;;;;;;;;5073141;28;20315;-80
2023/03/21 04:53:48;;;;;;;;;;;;;;;;;;5071945;28;20007;-80
2023/03/21 04:56:14;;;;;;;;;;;;;;;;;;5073074;28;19970;-80
2023/03/21 04:58:40;;;;;;;;;;;;;;;;;;5072776;28;19982;-80
2023/03/21 05:01:06;;;;;;;;;;;;;;;;;;5073105;28;19967;-80
2023/03/21 05:03:38;;;;;;;;;;;;;;;;;;5072589;28;19970;-80
2023/03/21 05:06:05;;;;;;;;;;;;;;;;;;5073105;28;19928;-80
2023/03/21 05:08:31;;;;;;;;;;;;;;;;;;5071388;28;20015;-81
2023/03/21 05:10:57;;;;;;;;;;;;;;;;;;5072133;28;19986;-80
2023/03/21 05:13:23;;;;;;;;;;;;;;;;;;5072500;28;19924;-81
2023/03/21 05:15:49;;;;;;;;;;;;;;;;;;5071642;28;19985;-80
2023/03/21 05:18:23;;;;;;;;;;;;;;;;;;5072673;28;19979;-80
2023/03/21 05:20:52;;;;;;;;;;;;;;;;;;5072433;28;20016;-80
2023/03/21 05:23:18;;;;;;;;;;;;;;;;;;5072176;28;20396;-81
2023/03/21 05:25:44;;;;;;;;;;;;;;;;;;5070554;28;19925;-81
2023/03/21 05:28:10;;;;;;;;;;;;;;;;;;5072026;28;19924;-81
2023/03/21 05:30:36;;;;;;;;;;;;;;;;;;5072171;28;19924;-80
2023/03/21 05:33:02;;;;;;;;;;;;;;;;;;5072679;28;19931;-80
2023/03/21 05:35:28;;;;;;;;;;;;;;;;;;5072279;28;19925;-80
2023/03/21 05:37:54;;;;;;;;;;;;;;;;;;5071656;28;19932;-80
2023/03/21 05:40:20;;;;;;;;;;;;;;;;;;5071679;28;19924;-81
2023/03/21 05:42:46;;;;;;;;;;;;;;;;;;5071986;28;19970;-80
2023/03/21 05:45:12;;;;;;;;;;;;;;;;;;5071540;28;19925;-80
2023/03/21 05:47:38;;;;;;;;;;;;;;;;;;5072082;28;19925;-81
2023/03/21 05:50:04;;;;;;;;;;;;;;;;;;5071978;28;19925;-81
2023/03/21 05:52:30;;;;;;;;;;;;;;;;;;5072016;28;19924;-80
2023/03/21 05:54:56;;;;;;;;;;;;;;;;;;5069867;28;19999;-81
2023/03/21 05:57:22;;;;;;;;;;;;;;;;;;5072239;28;20019;-81
2023/03/21 05:59:48;;;;;;;;;;;;;;;;;;5071605;28;19928;-81
2023/03/21 06:02:14;;;;;;;;;;;;;;;;;;5071732;28;19932;-80
2023/03/21 06:04:40;;;;;;;;;;;;;;;;;;5071515;28;19925;-81
2023/03/21 06:07:06;;;;;;;;;;;;;;;;;;5072024;28;20404;-80
2023/03/21 06:09:33;;;;;;;;;;;;;;;;;;5071047;28;20285;-81
2023/03/21 06:11:59;;;;;;;;;;;;;;;;;;5071340;28;20015;-81
2023/03/21 06:14:25;;;;;;;;;;;;;;;;;;5071691;28;20193;-81
2023/03/21 06:16:52;;;;;;;;;;;;;;;;;;5071559;28;19925;-81
2023/03/21 06:19:18;;;;;;;;;;;;;;;;;;5071882;28;19924;-82
2023/03/21 06:21:44;;;;;;;;;;;;;;;;;;5071627;28;19934;-82
2023/03/21 06:24:10;;;;;;;;;;;;;;;;;;5071090;28;19976;-82
2023/03/21 06:26:36;;;;;;;;;;;;;;;;;;5072056;28;19925;-84
2023/03/21 06:29:02;;;;;;;;;;;;;;;;;;5071354;28;19932;-82
2023/03/21 06:31:28;;;;;;;;;;;;;;;;;;5070863;28;19931;-82
2023/03/21 06:33:54;;;;;;;;;;;;;;;;;;5071364;28;19928;-81
2023/03/21 06:36:20;;;;;;;;;;;;;;;;;;5071727;28;19924;-81
2023/03/21 06:38:47;;;;;;;;;;;;;;;;;;5070613;28;19970;-81
2023/03/21 06:41:13;;;;;;;;;;;;;;;;;;5071430;28;19978;-81
2023/03/21 06:43:39;;;;;;;;;;;;;;;;;;5071735;28;19928;-81
2023/03/21 06:46:05;;;;;;;;;;;;;;;;;;5071541;28;19958;-82
2023/03/21 06:48:31;;;;;;;;;;;;;;;;;;5071572;28;19954;-82
2023/03/21 06:50:57;;;;;;;;;;;;;;;;;;5071279;28;19931;-82
2023/03/21 06:53:26;;;;;;;;;;;;;;;;;;5070977;28;19969;-81
2023/03/21 06:55:51;;;;;;;;;;;;;;;;;;5071900;28;19925;-83
2023/03/21 06:58:17;;;;;;;;;;;;;;;;;;5075159;28;19931;-82
2023/03/21 07:00:43;;;;;;;;;;;;;;;;;;5075158;28;19932;-81
2023/03/21 07:03:10;;;;;;;;;;;;;;;;;;5075438;28;19924;-82
2023/03/21 07:05:36;;;;;;;;;;;;;;;;;;5075141;28;19947;-83
2023/03/21 07:08:02;;;;;;;;;;;;;;;;;;5074951;28;19925;-82
2023/03/21 07:10:27;;;;;;;;;;;;;;;;;;5074201;28;19925;-82
2023/03/21 07:12:54;;;;;;;;;;;;;;;;;;5073960;28;19924;-82
2023/03/21 07:15:19;;;;;;;;;;;;;;;;;;5075173;28;19950;-82
2023/03/21 07:17:45;;;;;;;;;;;;;;;;;;5074493;28;19924;-82
2023/03/21 07:20:12;;;;;;;;;;;;;;;;;;5074744;28;19925;-85
2023/03/21 07:22:38;;;;;;;;;;;;;;;;;;5090878;28;20311;-81
2023/03/21 07:25:03;;;;;;;;;;;;;;;;;;5073652;28;19921;-83
2023/03/21 07:27:29;;;;;;;;;;;;;;;;;;5075036;28;20380;-81
2023/03/21 07:29:55;;;;;;;;;;;;;;;;;;5074607;28;19947;-82
2023/03/21 07:32:21;;;;;;;;;;;;;;;;;;5074743;28;19982;-82
2023/03/21 07:34:47;;;;;;;;;;;;;;;;;;5071999;28;19924;-82
2023/03/21 07:37:15;;;;;;;;;;;;;;;;;;5073689;28;20078;-83
2023/03/21 07:39:42;;;;;;;;;;;;;;;;;;5073349;28;19925;-83
2023/03/21 07:42:10;;;;;;;;;;;;;;;;;;5073546;28;20434;-83
2023/03/21 07:44:36;;;;;;;;;;;;;;;;;;5074433;28;19932;-87
2023/03/21 07:47:02;;;;;;;;;;;;;;;;;;5072867;28;19943;-83
2023/03/21 07:49:28;;;;;;;;;;;;;;;;;;5074004;28;20403;-84
2023/03/21 07:51:54;;;;;;;;;;;;;;;;;;5073142;28;20369;-82
2023/03/21 07:54:21;;;;;;;;;;;;;;;;;;5071243;28;19943;-82
2023/03/21 07:56:47;;;;;;;;;;;;;;;;;;5073030;28;19967;-81
2023/03/21 07:59:13;;;;;;;;;;;;;;;;;;5073808;28;20491;-82
2023/03/21 08:01:39;;;;;;;;;;;;;;;;;;5072693;28;20327;-84
2023/03/21 08:04:07;;;;;;;;;;;;;;;;;;5089297;28;19924;-83
2023/03/21 08:06:33;;;;;;;;;;;;;;;;;;5073480;28;19931;-83
2023/03/21 08:08:59;;;;;;;;;;;;;;;;;;5072830;28;19932;-83
2023/03/21 08:11:26;;;;;;;;;;;;;;;;;;5074040;28;19935;-83
2023/03/21 08:13:52;;;;;;;;;;;;;;;;;;5073558;28;19979;-83
2023/03/21 08:16:19;;;;;;;;;;;;;;;;;;5073623;28;20385;-84
2023/03/21 08:18:45;;;;;;;;;;;;;;;;;;5073492;28;20289;-84
2023/03/21 08:21:11;;;;;;;;;;;;;;;;;;5073078;28;19921;-84
2023/03/21 08:23:37;;;;;;;;;;;;;;;;;;5072983;28;20391;-83
2023/03/21 08:26:03;;;;;;;;;;;;;;;;;;5072589;28;19932;-85
2023/03/21 08:28:30;;;;;;;;;;;;;;;;;;5073813;28;19924;-85
2023/03/21 08:30:56;;;;;;;;;;;;;;;;;;5073382;28;19928;-84
2023/03/21 08:33:22;;;;;;;;;;;;;;;;;;5073482;28;19924;-83
2023/03/21 08:35:48;;;;;;;;;;;;;;;;;;5073262;28;19924;-84
2023/03/21 08:38:14;;;;;;;;;;;;;;;;;;5072799;28;19932;-83
2023/03/21 08:40:40;;;;;;;;;;;;;;;;;;5072596;28;19924;-84
2023/03/21 08:43:06;;;;;;;;;;;;;;;;;;5072716;28;20396;-84
2023/03/21 08:45:32;;;;;;;;;;;;;;;;;;5072518;28;19958;-84
2023/03/21 08:47:58;;;;;;;;;;;;;;;;;;5072776;28;19978;-84
2023/03/21 08:50:26;;;;;;;;;;;;;;;;;;5073109;28;19970;-83
2023/03/21 08:52:52;;;;;;;;;;;;;;;;;;5073347;28;19969;-84
2023/03/21 08:55:18;;;;;;;;;;;;;;;;;;5072034;28;20015;-83
2023/03/21 08:57:44;;;;;;;;;;;;;;;;;;5073112;28;19924;-83
2023/03/21 09:00:13;;;;;;;;;;;;;;;;;;5072763;28;19925;-84
2023/03/21 09:02:39;;;;;;;;;;;;;;;;;;5072840;28;19931;-84
2023/03/21 09:05:06;;;;;;;;;;;;;;;;;;5071840;28;19928;-84
2023/03/21 09:07:35;;;;;;;;;;;;;;;;;;5072933;28;19978;-85
2023/03/21 09:10:00;;;;;;;;;;;;;;;;;;5071756;28;19931;-84
2023/03/21 09:12:26;;;;;;;;;;;;;;;;;;5072952;28;19924;-85
2023/03/21 09:14:52;;;;;;;;;;;;;;;;;;5072649;28;19979;-85
2023/03/21 09:17:18;;;;;;;;;;;;;;;;;;5072459;28;20289;-84
2023/03/21 09:19:49;;;;;;;;;;;;;;;;;;5071895;28;19928;-84
2023/03/21 09:22:16;;;;;;;;;;;;;;;;;;5071852;28;19939;-83
2023/03/21 09:24:43;;;;;;;;;;;;;;;;;;5070443;28;19985;-85
2023/03/21 09:27:10;;;;;;;;;;;;;;;;;;5072286;28;19982;-84
2023/03/21 09:29:36;;;;;;;;;;;;;;;;;;5072540;28;19924;-84
2023/03/21 09:32:05;;;;;;;;;;;;;;;;;;5071543;28;19932;-84
2023/03/21 09:34:31;;;;;;;;;;;;;;;;;;5071951;28;19924;-83
2023/03/21 09:36:58;;;;;;;;;;;;;;;;;;5071517;28;19924;-81
2023/03/21 09:39:25;;;;;;;;;;;;;;;;;;5071191;28;19928;-84
2023/03/21 09:41:52;;;;;;;;;;;;;;;;;;5071644;28;19925;-84
2023/03/21 09:44:17;;;;;;;;;;;;;;;;;;5070658;28;20474;-84
2023/03/21 09:46:44;;;;;;;;;;;;;;;;;;5071217;28;19925;-84
2023/03/21 09:49:10;;;;;;;;;;;;;;;;;;5071220;28;19924;-83
2023/03/21 09:51:36;;;;;;;;;;;;;;;;;;5070637;28;20289;-83
2023/03/21 09:54:02;;;;;;;;;;;;;;;;;;5069938;28;19925;-83
2023/03/21 09:56:30;;;;;;;;;;;;;;;;;;5071584;28;19925;-83
2023/03/21 09:58:58;;;;;;;;;;;;;;;;;;5071302;28;19947;-84
2023/03/21 10:01:28;;;;;;;;;;;;;;;;;;5071619;28;19928;-84
2023/03/21 10:03:55;;;;;;;;;;;;;;;;;;5071226;28;19924;-82
2023/03/21 10:06:28;;;;;;;;;;;;;;;;;;5071014;28;19927;-83
2023/03/21 10:08:54;;;;;;;;;;;;;;;;;;5070816;28;19924;-82
2023/03/21 10:11:21;;;;;;;;;;;;;;;;;;5071112;28;19982;-85
2023/03/21 10:13:46;;;;;;;;;;;;;;;;;;5071951;28;19925;-84
2023/03/21 10:16:13;;;;;;;;;;;;;;;;;;5071650;28;19985;-85
2023/03/21 10:18:39;;;;;;;;;;;;;;;;;;5071675;28;20019;-86
2023/03/21 10:21:05;;;;;;;;;;;;;;;;;;5071439;28;19928;-86
2023/03/21 10:23:31;;;;;;;;;;;;;;;;;;5071468;28;20064;-85
2023/03/21 10:25:58;;;;;;;;;;;;;;;;;;5071364;28;19931;-81
2023/03/21 10:28:24;;;;;;;;;;;;;;;;;;5071534;28;20004;-81
2023/03/21 10:30:50;;;;;;;;;;;;;;;;;;5073845;28;20391;-80
2023/03/21 10:33:15;;;;;;;;;;;;;;;;;;5075533;28;19947;-81
2023/03/21 10:35:41;;;;;;;;;;;;;;;;;;5075744;28;19931;-80
2023/03/21 10:38:07;;;;;;;;;;;;;;;;;;5074615;28;20011;-80
2023/03/21 10:40:33;;;;;;;;;;;;;;;;;;5074931;28;19925;-80
2023/03/21 10:42:59;;;;;;;;;;;;;;;;;;5075361;28;20007;-80
2023/03/21 10:45:25;;;;;;;;;;;;;;;;;;5074237;28;20061;-80
2023/03/21 10:47:54;;;;;;;;;;;;;;;;;;5074908;28;20023;-80
2023/03/21 10:50:24;;;;;;;;;;;;;;;;;;5074485;28;19978;-80
2023/03/21 10:52:50;;;;;;;;;;;;;;;;;;5091170;28;20380;-81
2023/03/21 10:55:16;;;;;;;;;;;;;;;;;;5073683;28;19958;-81
2023/03/21 10:57:42;;;;;;;;;;;;;;;;;;5074811;28;19970;-81
2023/03/21 11:00:16;;;;;;;;;;;;;;;;;;5074232;28;19924;-81
2023/03/21 11:02:42;;;;;;;;;;;;;;;;;;5074985;28;19924;-81
2023/03/21 11:05:08;;;;;;;;;;;;;;;;;;5074271;28;19925;-80
2023/03/21 11:07:34;;;;;;;;;;;;;;;;;;5074619;28;19925;-81
2023/03/21 11:10:00;;;;;;;;;;;;;;;;;;5073795;28;19924;-80
2023/03/21 11:12:26;;;;;;;;;;;;;;;;;;5074289;28;19921;-81
2023/03/21 11:14:52;;;;;;;;;;;;;;;;;;5074315;28;19932;-81
2023/03/21 11:17:18;;;;;;;;;;;;;;;;;;5073937;28;19978;-80
2023/03/21 11:19:44;;;;;;;;;;;;;;;;;;5074543;28;19924;-80
2023/03/21 11:22:10;;;;;;;;;;;;;;;;;;5073939;28;20266;-80
2023/03/21 11:24:36;;;;;;;;;;;;;;;;;;5073684;28;19932;-79
2023/03/21 11:27:02;;;;;;;;;;;;;;;;;;5074449;28;19982;-80
2023/03/21 11:29:28;;;;;;;;;;;;;;;;;;5073647;28;20532;-80
2023/03/21 11:31:54;;;;;;;;;;;;;;;;;;5074006;28;19947;-80
2023/03/21 11:34:20;;;;;;;;;;;;;;;;;;5074065;28;19924;-79
2023/03/21 11:36:46;;;;;;;;;;;;;;;;;;5074234;28;19925;-80
2023/03/21 11:39:12;;;;;;;;;;;;;;;;;;5072177;28;19925;-80
2023/03/21 11:41:38;;;;;;;;;;;;;;;;;;5073740;28;19928;-81
2023/03/21 11:44:04;;;;;;;;;;;;;;;;;;5074589;28;19929;-79
2023/03/21 11:46:30;;;;;;;;;;;;;;;;;;5074511;28;19921;-79
2023/03/21 11:48:56;;;;;;;;;;;;;;;;;;5074322;28;19970;-79
2023/03/21 11:51:22;;;;;;;;;;;;;;;;;;5073836;28;19924;-79
2023/03/21 11:53:48;;;;;;;;;;;;;;;;;;5072610;28;19932;-79
2023/03/21 11:56:14;;;;;;;;;;;;;;;;;;5073811;28;20335;-80
2023/03/21 11:58:40;;;;;;;;;;;;;;;;;;5089975;28;20019;-79
2023/03/21 12:01:08;;;;;;;;;;;;;;;;;;5073923;28;20027;-81
2023/03/21 12:03:35;;;;;;;;;;;;;;;;;;5089362;28;19979;-80
2023/03/21 12:06:01;;;;;;;;;;;;;;;;;;5073711;28;19925;-81
2023/03/21 12:08:27;;;;;;;;;;;;;;;;;;5072669;28;19925;-81
2023/03/21 12:10:53;;;;;;;;;;;;;;;;;;5073300;28;20339;-81
2023/03/21 12:13:19;;;;;;;;;;;;;;;;;;5072493;28;20018;-81
2023/03/21 12:15:45;;;;;;;;;;;;;;;;;;5073377;28;19928;-81
2023/03/21 12:18:11;;;;;;;;;;;;;;;;;;5054240;28;20297;-80
2023/03/21 12:20:37;;;;;;;;;;;;;;;;;;5070327;28;19931;-81
2023/03/21 12:23:03;;;;;;;;;;;;;;;;;;5071640;28;19932;-80
2023/03/21 12:25:29;;;;;;;;;;;;;;;;;;5071507;28;20027;-80
2023/03/21 12:27:55;;;;;;;;;;;;;;;;;;5072782;28;19928;-81
2023/03/21 12:30:23;;;;;;;;;;;;;;;;;;5072207;28;19925;-80
2023/03/21 12:32:49;;;;;;;;;;;;;;;;;;5072872;28;20266;-80
2023/03/21 12:35:15;;;;;;;;;;;;;;;;;;5072371;28;19981;-80
2023/03/21 12:37:41;;;;;;;;;;;;;;;;;;5072409;28;19954;-80
2023/03/21 12:40:07;;;;;;;;;;;;;;;;;;5072401;28;19924;-80
2023/03/21 12:42:33;;;;;;;;;;;;;;;;;;5072645;28;19924;-79
2023/03/21 12:44:59;;;;;;;;;;;;;;;;;;5072401;28;19967;-79
2023/03/21 12:47:25;;;;;;;;;;;;;;;;;;5072537;28;19928;-80
2023/03/21 12:49:51;;;;;;;;;;;;;;;;;;5072749;28;20368;-80
2023/03/21 12:52:17;;;;;;;;;;;;;;;;;;5072952;28;19958;-81
2023/03/21 12:54:43;;;;;;;;;;;;;;;;;;5071961;28;19964;-79
2023/03/21 12:57:10;;;;;;;;;;;;;;;;;;5073126;28;20023;-79
2023/03/21 12:59:36;;;;;;;;;;;;;;;;;;5072654;28;20304;-78
2023/03/21 13:02:02;;;;;;;;;;;;;;;;;;5072931;28;19948;-77
2023/03/21 13:04:29;;;;;;;;;;;;;;;;;;5072057;28;19925;-81
2023/03/21 13:06:55;;;;;;;;;;;;;;;;;;5073027;28;20062;-81
2023/03/21 13:09:21;;;;;;;;;;;;;;;;;;5071747;28;19931;-81
2023/03/21 13:11:47;;;;;;;;;;;;;;;;;;5073038;28;19924;-82
2023/03/21 13:14:13;;;;;;;;;;;;;;;;;;5072802;28;20015;-79
2023/03/21 13:16:39;;;;;;;;;;;;;;;;;;5088433;28;20520;-79
2023/03/21 13:19:05;;;;;;;;;;;;;;;;;;5072142;28;19936;-79
2023/03/21 13:21:31;;;;;;;;;;;;;;;;;;5072438;28;19925;-79
2023/03/21 13:23:57;;;;;;;;;;;;;;;;;;5070652;28;20351;-80
2023/03/21 13:26:23;;;;;;;;;;;;;;;;;;5072514;28;19947;-79
2023/03/21 13:28:49;;;;;;;;;;;;;;;;;;5072628;28;20369;-79
2023/03/21 13:31:15;;;;;;;;;;;;;;;;;;5072619;28;20288;-79
2023/03/21 13:33:44;;;;;;;;;;;;;;;;;;5072053;28;19924;-79
2023/03/21 13:36:10;;;;;;;;;;;;;;;;;;5072619;28;19986;-79
2023/03/21 13:38:38;;;;;;;;;;;;;;;;;;5071689;28;20369;-79
2023/03/21 13:41:04;;;;;;;;;;;;;;;;;;5071877;28;20031;-80
2023/03/21 13:43:30;;;;;;;;;;;;;;;;;;5072032;28;20361;-79
2023/03/21 13:45:56;;;;;;;;;;;;;;;;;;5072433;28;19932;-79
2023/03/21 13:48:22;;;;;;;;;;;;;;;;;;5072155;28;19924;-80
2023/03/21 13:50:48;;;;;;;;;;;;;;;;;;5072012;28;19925;-79
2023/03/21 13:53:14;;;;;;;;;;;;;;;;;;5072178;28;19925;-80
2023/03/21 13:55:40;;;;;;;;;;;;;;;;;;5071143;28;19924;-79
2023/03/21 13:58:06;;;;;;;;;;;;;;;;;;5072254;28;20400;-79
2023/03/21 14:00:33;;;;;;;;;;;;;;;;;;5071860;28;19932;-80
2023/03/21 14:02:59;;;;;;;;;;;;;;;;;;5071915;28;20411;-79
2023/03/21 14:05:25;;;;;;;;;;;;;;;;;;5070549;28;20399;-79
2023/03/21 14:07:51;;;;;;;;;;;;;;;;;;5071652;28;19925;-80
2023/03/21 14:10:17;;;;;;;;;;;;;;;;;;5071295;28;19932;-79
2023/03/21 14:12:43;;;;;;;;;;;;;;;;;;5071597;28;19925;-79
2023/03/21 14:15:09;;;;;;;;;;;;;;;;;;5071905;28;19932;-79
2023/03/21 14:17:35;;;;;;;;;;;;;;;;;;5071191;28;20027;-79
2023/03/21 14:20:09;;;;;;;;;;;;;;;;;;5087814;28;19935;-79
2023/03/21 14:22:35;;;;;;;;;;;;;;;;;;5071799;28;19928;-79
2023/03/21 14:25:01;;;;;;;;;;;;;;;;;;5070897;28;19932;-79
2023/03/21 14:27:27;;;;;;;;;;;;;;;;;;5071737;28;20021;-80
2023/03/21 14:29:53;;;;;;;;;;;;;;;;;;5072100;28;20023;-79
2023/03/21 14:32:19;;;;;;;;;;;;;;;;;;5071706;28;19924;-79
2023/03/21 14:34:45;;;;;;;;;;;;;;;;;;5071442;28;19932;-79
2023/03/21 14:37:11;;;;;;;;;;;;;;;;;;5070822;28;20377;-79
2023/03/21 14:39:37;;;;;;;;;;;;;;;;;;5070643;28;19924;-81
2023/03/21 14:42:03;;;;;;;;;;;;;;;;;;5071943;28;19925;-79
2023/03/21 14:44:29;;;;;;;;;;;;;;;;;;5070468;28;19924;-81
2023/03/21 14:46:55;;;;;;;;;;;;;;;;;;5071321;28;19995;-81
2023/03/21 14:49:21;;;;;;;;;;;;;;;;;;5071359;28;19924;-81
2023/03/21 14:51:47;;;;;;;;;;;;;;;;;;5070623;28;19924;-81
2023/03/21 14:54:16;;;;;;;;;;;;;;;;;;5070675;28;19932;-81
2023/03/21 14:56:43;;;;;;;;;;;;;;;;;;5086366;28;19931;-81
2023/03/21 14:59:09;;;;;;;;;;;;;;;;;;5070929;28;20035;-82
2023/03/21 15:01:35;;;;;;;;;;;;;;;;;;5070671;28;19928;-81
2023/03/21 15:04:01;;;;;;;;;;;;;;;;;;5070658;28;20498;-81
2023/03/21 15:06:27;;;;;;;;;;;;;;;;;;5070687;28;19924;-81
2023/03/21 15:08:53;;;;;;;;;;;;;;;;;;5069884;28;20015;-81
2023/03/21 15:11:19;;;;;;;;;;;;;;;;;;5070705;28;20487;-81
2023/03/21 15:13:45;;;;;;;;;;;;;;;;;;5068463;28;19929;-81
2023/03/21 15:16:11;;;;;;;;;;;;;;;;;;5070757;28;19924;-80
2023/03/21 15:18:37;;;;;;;;;;;;;;;;;;5073544;28;20328;-81
2023/03/21 15:21:03;;;;;;;;;;;;;;;;;;5074111;28;20292;-81
2023/03/21 15:23:29;;;;;;;;;;;;;;;;;;5073824;28;19924;-81
2023/03/21 15:25:55;;;;;;;;;;;;;;;;;;5073852;28;19928;-81
2023/03/21 15:28:21;;;;;;;;;;;;;;;;;;5074153;28;20331;-81
2023/03/21 15:30:46;;;;;;;;;;;;;;;;;;5073598;28;19924;-81
2023/03/21 15:33:13;;;;;;;;;;;;;;;;;;5073399;28;20452;-81
2023/03/21 15:35:39;;;;;;;;;;;;;;;;;;5073383;28;19928;-81
2023/03/21 15:38:05;;;;;;;;;;;;;;;;;;5073195;28;19936;-81
2023/03/21 15:40:31;;;;;;;;;;;;;;;;;;5072761;28;19928;-80
2023/03/21 15:42:57;;;;;;;;;;;;;;;;;;5073877;28;19978;-81
2023/03/21 15:45:23;;;;;;;;;;;;;;;;;;5073577;28;20392;-81
2023/03/21 15:47:49;;;;;;;;;;;;;;;;;;5073540;28;19924;-81
2023/03/21 15:50:16;;;;;;;;;;;;;;;;;;5073616;28;20027;-81
2023/03/21 15:52:42;;;;;;;;;;;;;;;;;;5073205;28;19925;-81
2023/03/21 15:55:08;;;;;;;;;;;;;;;;;;5072781;28;19924;-81
2023/03/21 15:57:36;;;;;;;;;;;;;;;;;;5073128;28;19928;-81
2023/03/21 16:00:05;;;;;;;;;;;;;;;;;;5073446;28;19924;-81
2023/03/21 16:02:31;;;;;;;;;;;;;;;;;;5073663;28;19924;-81
2023/03/21 16:04:57;;;;;;;;;;;;;;;;;;5072988;28;19924;-80
2023/03/21 16:07:23;;;;;;;;;;;;;;;;;;5073412;28;19931;-80
2023/03/21 16:09:49;;;;;;;;;;;;;;;;;;5072495;28;19925;-80
2023/03/21 16:12:15;;;;;;;;;;;;;;;;;;5073222;28;19994;-79
2023/03/21 16:14:41;;;;;;;;;;;;;;;;;;5073419;28;19924;-80
2023/03/21 16:17:07;;;;;;;;;;;;;;;;;;5073087;28;20388;-79
2023/03/21 16:19:33;;;;;;;;;;;;;;;;;;5072953;28;19969;-79
2023/03/21 16:21:59;;;;;;;;;;;;;;;;;;5073268;28;20282;-77
2023/03/21 16:24:25;;;;;;;;;;;;;;;;;;5072857;28;19928;-76
2023/03/21 16:26:52;;;;;;;;;;;;;;;;;;5073345;28;20468;-80
2023/03/21 16:29:18;;;;;;;;;;;;;;;;;;5072773;28;20077;-79
2023/03/21 16:31:44;;;;;;;;;;;;;;;;;;5072961;28;20169;-78
2023/03/21 16:34:11;;;;;;;;;;;;;;;;;;5073282;28;20431;-78
2023/03/21 16:36:37;;;;;;;;;;;;;;;;;;5073328;28;19924;-79
2023/03/21 16:39:04;;;;;;;;;;;;;;;;;;5071850;28;19924;-79
2023/03/21 16:41:30;;;;;;;;;;;;;;;;;;5073412;28;20377;-79
2023/03/21 16:43:56;;;;;;;;;;;;;;;;;;5071876;28;19936;-78
2023/03/21 16:46:22;;;;;;;;;;;;;;;;;;5073443;28;19924;-80
2023/03/21 16:48:47;;;;;;;;;;;;;;;;;;5072805;28;19969;-78
2023/03/21 16:51:14;;;;;;;;;;;;;;;;;;5073036;28;19925;-78
2023/03/21 16:53:39;;;;;;;;;;;;;;;;;;5088508;28;19924;-81